Oriana — ZCDU9 — position and weather

sailwx.info

Track history (hours):
 
Tides and Currents Weather Stations Pressure Air Temp Water Temp Dewpoint Dewpoint Depression Visibility Wind Speed Wind Dir Waves Ship Positions

Oriana (Bermuda)

Last reported at 2015-Jul-30 05:31 UTC. Time now 2015-Aug-02 12:16 UTC.
Position N 36°56' W 010°28'.

Length 261 m; beam 32.2 m; draft 8.2 m.

Type: Ship. MMSI: 310529000.

Date/timePositionNaut miles runAvg speedWind from/ knotsBaromVisibWave heightAir tempDewpointWater temp
2015-Jul-30 05:31N 36°56' W 010°28'1010.7
2015-Jul-30 04:33N 37°05' W 010°22'1110.4
2015-Jul-30 03:27N 37°15' W 010°15'1010.2
2015-Jul-30 02:28N 37°24' W 010°08'1010.6
2015-Jul-30 01:32N 37°32' W 010°02'1110.9
2015-Jul-30 00:32N 37°42' W 009°56'1010.5
2015-Jul-29 23:33N 37°51' W 009°49'1110.9
2015-Jul-29 22:33N 37°60' W 009°40'1110.9
2015-Jul-29 21:33N 38°09' W 009°34'1110.7
2015-Jul-29 20:33N 38°19' W 009°28'1110.8
2015-Jul-29 19:33N 38°29' W 009°25'1312.7
2015-Jul-29 18:33N 38°41' W 009°18'6 0.5
2015-Jul-29 07:18N 38°42' W 009°11'910.1
2015-Jul-29 06:23N 38°38' W 009°21'1113.2
2015-Jul-29 05:32N 38°37' W 009°36'1413.9
2015-Jul-29 04:33N 38°49' W 009°43'1515.6
2015-Jul-29 03:33N 39°04' W 009°48'1515.5
2015-Jul-29 02:33N 39°19' W 009°53'1915.2
2015-Jul-29 01:19N 39°38' W 009°51'1215.3
2015-Jul-29 00:33N 39°49' W 009°52'1815.2
2015-Jul-28 23:24N 40°07' W 009°54'1615.0
2015-Jul-28 22:20N 40°23' W 009°54'1415.5
2015-Jul-28 21:26N 40°37' W 009°56'69113.9
2015-Jul-26 19:32N 50°27' W 001°21'1413.7
2015-Jul-26 18:30N 50°33' W 001°01'1010.6
2015-Jul-26 17:34N 50°43' W 001°01'1312.5
2015-Jul-26 16:33N 50°50' W 001°18'7 6.3
2015-Jul-26 15:32N 50°54' W 001°26'0 0.0
2015-Jul-26 14:32N 50°54' W 001°26'0 0.0
2015-Jul-26 13:32N 50°54' W 001°26'0 0.0
2015-Jul-26 12:32N 50°54' W 001°26'0 0.0
2015-Jul-26 11:32N 50°54' W 001°26'0 0.0
2015-Jul-26 10:32N 50°54' W 001°26'0 0.0
2015-Jul-26 09:32N 50°54' W 001°26'0 0.0
2015-Jul-26 08:32N 50°54' W 001°26'0 0.0
2015-Jul-26 07:32N 50°54' W 001°26'0 0.0
2015-Jul-26 06:32N 50°54' W 001°26'0 0.4
2015-Jul-26 05:33N 50°54' W 001°26'7 6.9
2015-Jul-26 04:34N 50°50' W 001°18'1211.6
2015-Jul-26 03:33N 50°44' W 001°03'1212.2
2015-Jul-26 02:33N 50°37' W 000°47'1615.6
2015-Jul-26 01:31N 50°34' W 000°22'1515.7
2015-Jul-26 00:34N 50°33' E 000°02'1616.1
2015-Jul-25 23:34N 50°37' E 000°26'1717.3
2015-Jul-25 22:34N 50°45' E 000°51'1717.1
2015-Jul-25 21:34N 50°55' E 001°13'1616.0
2015-Jul-25 20:33N 51°06' E 001°31'1313.0
2015-Jul-25 19:33N 51°15' E 001°46'1313.1
2015-Jul-25 18:34N 51°27' E 001°55'1313.1
2015-Jul-25 17:34N 51°37' E 002°09'7610.7
2015-Jul-25 10:26N 52°31' E 003°36'1110.1
2015-Jul-25 09:22N 52°31' E 003°54'910.2
2015-Jul-25 08:29N 52°31' E 004°08'9 9.8
2015-Jul-25 07:33N 52°30' E 004°23'8 8.2
2015-Jul-25 06:34N 52°28' E 004°36'3 3.5
2015-Jul-25 05:34N 52°27' E 004°42'8 8.0
2015-Jul-25 04:34N 52°24' E 004°54'1 1.1
2015-Jul-25 03:31N 52°23' E 004°55'0 0.0
2015-Jul-25 02:28N 52°23' E 004°55'0 0.0
2015-Jul-25 01:31N 52°23' E 004°55'0 0.0
2015-Jul-25 00:31N 52°23' E 004°55'0 0.0
2015-Jul-24 23:31N 52°23' E 004°55'0 0.0
2015-Jul-24 22:31N 52°23' E 004°55'0 0.0
2015-Jul-24 21:31N 52°23' E 004°55'0 0.0
2015-Jul-24 20:31N 52°23' E 004°55'0 0.0
2015-Jul-24 19:31N 52°23' E 004°55'0 0.0
2015-Jul-24 18:31N 52°23' E 004°55'0 0.0
2015-Jul-24 17:31N 52°23' E 004°55'0 0.0
2015-Jul-24 16:31N 52°23' E 004°55'0 0.0
2015-Jul-24 15:31N 52°23' E 004°55'0 0.0
2015-Jul-24 14:31N 52°23' E 004°55'0 0.0
2015-Jul-24 13:28N 52°23' E 004°55'0 0.0
2015-Jul-24 12:31N 52°23' E 004°55'0 0.0
2015-Jul-24 11:31N 52°23' E 004°55'0 0.0
2015-Jul-24 10:28N 52°23' E 004°55'0 0.0
2015-Jul-24 09:28N 52°23' E 004°55'0 0.0
2015-Jul-24 08:28N 52°23' E 004°55'0 0.0
2015-Jul-24 07:31N 52°23' E 004°55'0 0.0
2015-Jul-24 06:31N 52°23' E 004°55'0 0.1
2015-Jul-24 05:33N 52°23' E 004°55'3 2.9
2015-Jul-24 04:33N 52°25' E 004°52'8 8.0
2015-Jul-24 03:33N 52°28' E 004°39'2 1.7
2015-Jul-24 02:33N 52°28' E 004°37'7 7.3
2015-Jul-24 01:33N 52°29' E 004°25'1413.5
2015-Jul-24 00:32N 52°28' E 004°02'3611.6
2015-Jul-23 21:26N 52°01' E 003°23'1010.8
2015-Jul-23 20:29N 51°52' E 003°17'1111.5
2015-Jul-23 19:33N 51°44' E 003°04'1312.8
2015-Jul-23 18:34N 51°34' E 002°53'1110.7
2015-Jul-23 17:33N 51°24' E 002°45'1413.6
2015-Jul-23 16:34N 51°24' E 003°07'5 3.7
2015-Jul-23 15:14N 51°20' E 003°12'0 0.0
2015-Jul-23 14:32N 51°20' E 003°12'0 0.0
2015-Jul-23 13:20N 51°20' E 003°12'0 0.0
2015-Jul-23 12:32N 51°20' E 003°12'0 0.0
2015-Jul-23 11:32N 51°20' E 003°12'0 0.0
2015-Jul-23 10:08N 51°20' E 003°12'0 0.0
2015-Jul-23 08:29N 51°20' E 003°12'0 0.0
2015-Jul-23 06:05N 51°20' E 003°12'0 0.0
2015-Jul-23 05:33N 51°20' E 003°12'9 9.0
2015-Jul-23 04:34N 51°23' E 002°59'1515.1
2015-Jul-23 03:33N 51°22' E 002°35'1616.2
2015-Jul-23 02:33N 51°15' E 002°11'1615.8
2015-Jul-23 01:33N 51°08' E 001°49'1716.8
2015-Jul-23 00:33N 50°56' E 001°29'1615.9
2015-Jul-22 23:33N 50°41' E 001°21'1717.2
2015-Jul-22 22:33N 50°31' E 000°58'2018.6
2015-Jul-22 21:27N 50°26' E 000°27'2317.5
2015-Jul-22 20:10N 50°22' W 000°07'1118.1
2015-Jul-22 19:33N 50°28' W 000°22'1817.8
2015-Jul-22 18:33N 50°37' W 000°47'1615.9
2015-Jul-22 17:33N 50°45' W 001°08'1110.6
2015-Jul-22 16:33N 50°52' W 001°21'4 1.9
2015-Jul-22 14:27N 50°54' W 001°26'0 0.0
2015-Jul-22 12:33N 50°54' W 001°26'0 0.0
2015-Jul-22 11:12N 50°54' W 001°26'0 0.0
2015-Jul-22 10:27N 50°54' W 001°26'0 0.0
2015-Jul-22 09:27N 50°54' W 001°26'0 0.0
2015-Jul-22 08:33N 50°54' W 001°26'0 0.0
2015-Jul-22 07:30N 50°54' W 001°26'0 0.0
2015-Jul-22 06:27N 50°54' W 001°26'0 0.2
2015-Jul-22 05:33N 50°54' W 001°26'7 7.5
2015-Jul-22 04:33N 50°49' W 001°18'10 9.9
2015-Jul-22 03:30N 50°43' W 001°31'3711.9
2015-Jul-22 00:22N 50°22' W 002°20'911.2
2015-Jul-21 23:33N 50°18' W 002°33'1211.8
2015-Jul-21 22:33N 50°12' W 002°49'1211.6
2015-Jul-21 21:33N 50°07' W 003°05'1111.3
2015-Jul-21 20:33N 50°01' W 003°20'  
Track history (hours):
 
Tides and Currents Weather Stations Pressure Air Temp Water Temp Dewpoint Dewpoint Depression Visibility Wind Speed Wind Dir Waves Ship Positions

Oriana (Bermuda)

Last reported at 2015-Jul-30 05:31 UTC. Time now 2015-Aug-02 12:16 UTC.
Position N 36°56' W 010°28'.

Length 261 m; beam 32.2 m; draft 8.2 m.

Type: Ship. MMSI: 310529000.

Date/timePositionNaut miles runAvg speedWind from/ knotsBaromVisibWave heightAir tempDewpointWater temp
2015-Jul-30 05:31N 36°56' W 010°28'1010.7
2015-Jul-30 04:33N 37°05' W 010°22'1110.4
2015-Jul-30 03:27N 37°15' W 010°15'1010.2
2015-Jul-30 02:28N 37°24' W 010°08'1010.6
2015-Jul-30 01:32N 37°32' W 010°02'1110.9
2015-Jul-30 00:32N 37°42' W 009°56'1010.5
2015-Jul-29 23:33N 37°51' W 009°49'1110.9
2015-Jul-29 22:33N 37°60' W 009°40'1110.9
2015-Jul-29 21:33N 38°09' W 009°34'1110.7
2015-Jul-29 20:33N 38°19' W 009°28'1110.8
2015-Jul-29 19:33N 38°29' W 009°25'1312.7
2015-Jul-29 18:33N 38°41' W 009°18'6 0.5
2015-Jul-29 07:18N 38°42' W 009°11'910.1
2015-Jul-29 06:23N 38°38' W 009°21'1113.2
2015-Jul-29 05:32N 38°37' W 009°36'1413.9
2015-Jul-29 04:33N 38°49' W 009°43'1515.6
2015-Jul-29 03:33N 39°04' W 009°48'1515.5
2015-Jul-29 02:33N 39°19' W 009°53'1915.2
2015-Jul-29 01:19N 39°38' W 009°51'1215.3
2015-Jul-29 00:33N 39°49' W 009°52'1815.2
2015-Jul-28 23:24N 40°07' W 009°54'1615.0
2015-Jul-28 22:20N 40°23' W 009°54'1415.5
2015-Jul-28 21:26N 40°37' W 009°56'69113.9
2015-Jul-26 19:32N 50°27' W 001°21'1413.7
2015-Jul-26 18:30N 50°33' W 001°01'1010.6
2015-Jul-26 17:34N 50°43' W 001°01'1312.5
2015-Jul-26 16:33N 50°50' W 001°18'7 6.3
2015-Jul-26 15:32N 50°54' W 001°26'0 0.0
2015-Jul-26 14:32N 50°54' W 001°26'0 0.0
2015-Jul-26 13:32N 50°54' W 001°26'0 0.0
2015-Jul-26 12:32N 50°54' W 001°26'0 0.0
2015-Jul-26 11:32N 50°54' W 001°26'0 0.0
2015-Jul-26 10:32N 50°54' W 001°26'0 0.0
2015-Jul-26 09:32N 50°54' W 001°26'0 0.0
2015-Jul-26 08:32N 50°54' W 001°26'0 0.0
2015-Jul-26 07:32N 50°54' W 001°26'0 0.0
2015-Jul-26 06:32N 50°54' W 001°26'0 0.4
2015-Jul-26 05:33N 50°54' W 001°26'7 6.9
2015-Jul-26 04:34N 50°50' W 001°18'1211.6
2015-Jul-26 03:33N 50°44' W 001°03'1212.2
2015-Jul-26 02:33N 50°37' W 000°47'1615.6
2015-Jul-26 01:31N 50°34' W 000°22'1515.7
2015-Jul-26 00:34N 50°33' E 000°02'1616.1
2015-Jul-25 23:34N 50°37' E 000°26'1717.3
2015-Jul-25 22:34N 50°45' E 000°51'1717.1
2015-Jul-25 21:34N 50°55' E 001°13'1616.0
2015-Jul-25 20:33N 51°06' E 001°31'1313.0
2015-Jul-25 19:33N 51°15' E 001°46'1313.1
2015-Jul-25 18:34N 51°27' E 001°55'1313.1
2015-Jul-25 17:34N 51°37' E 002°09'7610.7
2015-Jul-25 10:26N 52°31' E 003°36'1110.1
2015-Jul-25 09:22N 52°31' E 003°54'910.2
2015-Jul-25 08:29N 52°31' E 004°08'9 9.8
2015-Jul-25 07:33N 52°30' E 004°23'8 8.2
2015-Jul-25 06:34N 52°28' E 004°36'3 3.5
2015-Jul-25 05:34N 52°27' E 004°42'8 8.0
2015-Jul-25 04:34N 52°24' E 004°54'1 1.1
2015-Jul-25 03:31N 52°23' E 004°55'0 0.0
2015-Jul-25 02:28N 52°23' E 004°55'0 0.0
2015-Jul-25 01:31N 52°23' E 004°55'0 0.0
2015-Jul-25 00:31N 52°23' E 004°55'0 0.0
2015-Jul-24 23:31N 52°23' E 004°55'0 0.0
2015-Jul-24 22:31N 52°23' E 004°55'0 0.0
2015-Jul-24 21:31N 52°23' E 004°55'0 0.0
2015-Jul-24 20:31N 52°23' E 004°55'0 0.0
2015-Jul-24 19:31N 52°23' E 004°55'0 0.0
2015-Jul-24 18:31N 52°23' E 004°55'0 0.0
2015-Jul-24 17:31N 52°23' E 004°55'0 0.0
2015-Jul-24 16:31N 52°23' E 004°55'0 0.0
2015-Jul-24 15:31N 52°23' E 004°55'0 0.0
2015-Jul-24 14:31N 52°23' E 004°55'0 0.0
2015-Jul-24 13:28N 52°23' E 004°55'0 0.0
2015-Jul-24 12:31N 52°23' E 004°55'0 0.0
2015-Jul-24 11:31N 52°23' E 004°55'0 0.0
2015-Jul-24 10:28N 52°23' E 004°55'0 0.0
2015-Jul-24 09:28N 52°23' E 004°55'0 0.0
2015-Jul-24 08:28N 52°23' E 004°55'0 0.0
2015-Jul-24 07:31N 52°23' E 004°55'0 0.0
2015-Jul-24 06:31N 52°23' E 004°55'0 0.1
2015-Jul-24 05:33N 52°23' E 004°55'3 2.9
2015-Jul-24 04:33N 52°25' E 004°52'8 8.0
2015-Jul-24 03:33N 52°28' E 004°39'2 1.7
2015-Jul-24 02:33N 52°28' E 004°37'7 7.3
2015-Jul-24 01:33N 52°29' E 004°25'1413.5
2015-Jul-24 00:32N 52°28' E 004°02'3611.6
2015-Jul-23 21:26N 52°01' E 003°23'1010.8
2015-Jul-23 20:29N 51°52' E 003°17'1111.5
2015-Jul-23 19:33N 51°44' E 003°04'1312.8
2015-Jul-23 18:34N 51°34' E 002°53'1110.7
2015-Jul-23 17:33N 51°24' E 002°45'1413.6
2015-Jul-23 16:34N 51°24' E 003°07'5 3.7
2015-Jul-23 15:14N 51°20' E 003°12'0 0.0
2015-Jul-23 14:32N 51°20' E 003°12'0 0.0
2015-Jul-23 13:20N 51°20' E 003°12'0 0.0
2015-Jul-23 12:32N 51°20' E 003°12'0 0.0
2015-Jul-23 11:32N 51°20' E 003°12'0 0.0
2015-Jul-23 10:08N 51°20' E 003°12'0 0.0
2015-Jul-23 08:29N 51°20' E 003°12'0 0.0
2015-Jul-23 06:05N 51°20' E 003°12'0 0.0
2015-Jul-23 05:33N 51°20' E 003°12'9 9.0
2015-Jul-23 04:34N 51°23' E 002°59'1515.1
2015-Jul-23 03:33N 51°22' E 002°35'1616.2
2015-Jul-23 02:33N 51°15' E 002°11'1615.8
2015-Jul-23 01:33N 51°08' E 001°49'1716.8
2015-Jul-23 00:33N 50°56' E 001°29'1615.9
2015-Jul-22 23:33N 50°41' E 001°21'1717.2
2015-Jul-22 22:33N 50°31' E 000°58'2018.6
2015-Jul-22 21:27N 50°26' E 000°27'2317.5
2015-Jul-22 20:10N 50°22' W 000°07'1118.1
2015-Jul-22 19:33N 50°28' W 000°22'1817.8
2015-Jul-22 18:33N 50°37' W 000°47'1615.9
2015-Jul-22 17:33N 50°45' W 001°08'1110.6
2015-Jul-22 16:33N 50°52' W 001°21'4 1.9
2015-Jul-22 14:27N 50°54' W 001°26'0 0.0
2015-Jul-22 12:33N 50°54' W 001°26'0 0.0
2015-Jul-22 11:12N 50°54' W 001°26'0 0.0
2015-Jul-22 10:27N 50°54' W 001°26'0 0.0
2015-Jul-22 09:27N 50°54' W 001°26'0 0.0
2015-Jul-22 08:33N 50°54' W 001°26'0 0.0
2015-Jul-22 07:30N 50°54' W 001°26'0 0.0
2015-Jul-22 06:27N 50°54' W 001°26'0 0.2
2015-Jul-22 05:33N 50°54' W 001°26'7 7.5
2015-Jul-22 04:33N 50°49' W 001°18'10 9.9
2015-Jul-22 03:30N 50°43' W 001°31'3711.9
2015-Jul-22 00:22N 50°22' W 002°20'911.2
2015-Jul-21 23:33N 50°18' W 002°33'1211.8
2015-Jul-21 22:33N 50°12' W 002°49'1211.6
2015-Jul-21 21:33N 50°07' W 003°05'1111.3
2015-Jul-21 20:33N 50°01' W 003°20'  

Dump ship's entire track history